Time;durP1;ratioP1;P1;durP2;ratioP2;P2;SDS_P1;SDS_P2;PMS_P1;PMS_P2;Temp;Humidity;BMP_temperature;BMP_pressure;BME280_temperature;BME280_humidity;BME280_pressure;Samples;Min_cycle;Max_cycle;Signal;HPM_P1;HPM_P2
2021/05/12 00:00:12;;;;;;;13.60;8.27;;;12.20;99.90;;;;;;5017795;28;20374;-76
2021/05/12 00:02:38;;;;;;;14.63;8.90;;;12.30;99.90;;;;;;5018122;28;20294;-75
2021/05/12 00:05:07;;;;;;;22.53;9.77;;;12.20;99.90;;;;;;5015167;28;20331;-75
2021/05/12 00:07:34;;;;;;;20.47;10.10;;;12.20;99.90;;;;;;5016202;28;20307;-75
2021/05/12 00:10:00;;;;;;;19.07;9.83;;;12.10;99.90;;;;;;5016054;28;20250;-75
2021/05/12 00:12:28;;;;;;;15.77;10.20;;;12.10;99.90;;;;;;5022981;28;20312;-74
2021/05/12 00:14:55;;;;;;;23.80;13.30;;;12.00;99.90;;;;;;5015164;28;20717;-76
2021/05/12 00:17:22;;;;;;;22.53;12.60;;;12.00;99.90;;;;;;5015307;28;20656;-75
2021/05/12 00:19:55;;;;;;;25.97;14.33;;;12.00;99.90;;;;;;5016691;28;20223;-76
2021/05/12 00:22:33;;;;;;;25.27;14.73;;;11.90;99.90;;;;;;5018516;28;20219;-75
2021/05/12 00:24:59;;;;;;;23.40;14.10;;;11.90;99.90;;;;;;5014298;28;20216;-74
2021/05/12 00:27:27;;;;;;;21.80;13.60;;;11.90;99.90;;;;;;5018007;28;20322;-74
2021/05/12 00:29:53;;;;;;;22.23;13.53;;;11.90;99.90;;;;;;5015205;28;20794;-75
2021/05/12 00:32:20;;;;;;;22.63;14.20;;;11.90;99.90;;;;;;5017184;28;20235;-76
2021/05/12 00:34:46;;;;;;;23.63;13.87;;;11.90;99.90;;;;;;5015454;28;20259;-75
2021/05/12 00:37:13;;;;;;;22.23;13.70;;;11.90;99.90;;;;;;5014647;28;20652;-75
2021/05/12 00:39:39;;;;;;;22.73;12.40;;;11.90;99.90;;;;;;5016182;28;20689;-74
2021/05/12 00:42:06;;;;;;;26.40;12.70;;;11.80;99.90;;;;;;5021150;28;20274;-75
2021/05/12 00:44:34;;;;;;;24.20;12.90;;;11.80;99.90;;;;;;5029115;28;20219;-75
2021/05/12 00:47:04;;;;;;;28.43;12.63;;;11.80;99.90;;;;;;5036398;28;20307;-76
2021/05/12 00:49:30;;;;;;;21.10;11.23;;;11.80;99.90;;;;;;5022600;28;20394;-74
2021/05/12 00:51:57;;;;;;;28.17;12.57;;;11.80;99.90;;;;;;5014977;28;20628;-75
2021/05/12 00:54:23;;;;;;;25.20;12.57;;;11.80;99.90;;;;;;5013547;28;20221;-75
2021/05/12 00:56:50;;;;;;;25.47;12.70;;;11.70;99.90;;;;;;5018787;28;20261;-75
2021/05/12 00:59:17;;;;;;;27.63;13.97;;;11.70;99.90;;;;;;5018794;28;20215;-75
2021/05/12 01:01:45;;;;;;;32.77;15.53;;;11.70;99.90;;;;;;5020933;28;20207;-75
2021/05/12 01:04:11;;;;;;;37.67;17.17;;;11.60;99.90;;;;;;5022109;28;20311;-75
2021/05/12 01:06:40;;;;;;;36.27;16.93;;;11.60;99.90;;;;;;5022912;28;20254;-74
2021/05/12 01:09:09;;;;;;;36.23;18.83;;;11.50;99.90;;;;;;5026284;28;20243;-74
2021/05/12 01:11:36;;;;;;;34.50;18.13;;;11.50;99.90;;;;;;5026189;28;20254;-74
2021/05/12 01:14:04;;;;;;;33.43;17.17;;;11.50;99.90;;;;;;5021187;28;20258;-75
2021/05/12 01:16:30;;;;;;;35.07;18.33;;;11.40;99.90;;;;;;5025465;28;20298;-74
2021/05/12 01:18:58;;;;;;;35.23;19.03;;;11.40;99.90;;;;;;5025327;28;20662;-74
2021/05/12 01:21:25;;;;;;;38.70;20.50;;;11.40;99.90;;;;;;5022674;28;20239;-75
2021/05/12 01:23:51;;;;;;;40.63;22.00;;;11.40;99.90;;;;;;5023759;28;20308;-74
2021/05/12 01:26:20;;;;;;;44.93;23.57;;;11.40;99.90;;;;;;5026877;28;20673;-74
2021/05/12 01:28:48;;;;;;;50.07;24.37;;;11.50;99.90;;;;;;5022251;28;20256;-74
2021/05/12 01:31:17;;;;;;;46.17;23.47;;;11.50;99.90;;;;;;5027089;28;20235;-75
2021/05/12 01:33:45;;;;;;;43.43;24.10;;;11.50;99.90;;;;;;5022144;28;20270;-74
2021/05/12 01:36:12;;;;;;;46.53;25.13;;;11.50;99.90;;;;;;5026013;28;20283;-75
2021/05/12 01:38:41;;;;;;;49.13;25.57;;;11.50;99.90;;;;;;5020251;28;20243;-75
2021/05/12 01:41:08;;;;;;;47.10;26.07;;;11.50;99.90;;;;;;5024371;28;20227;-74
2021/05/12 01:43:36;;;;;;;51.20;27.10;;;11.50;99.90;;;;;;5025833;28;20660;-75
2021/05/12 01:46:03;;;;;;;56.83;27.47;;;11.50;99.90;;;;;;5022722;28;20306;-74
2021/05/12 01:48:30;;;;;;;54.63;29.23;;;11.60;99.90;;;;;;5022732;28;20247;-75
2021/05/12 01:50:57;;;;;;;53.77;28.23;;;11.50;99.90;;;;;;5028106;28;20681;-74
2021/05/12 01:53:24;;;;;;;57.73;28.40;;;11.50;99.90;;;;;;5034891;28;20249;-74
2021/05/12 01:55:52;;;;;;;54.37;27.63;;;11.50;99.90;;;;;;5050197;28;20215;-75
2021/05/12 01:58:20;;;;;;;53.63;27.80;;;11.60;99.90;;;;;;5032765;28;20238;-75
2021/05/12 02:00:48;;;;;;;56.37;28.47;;;11.50;99.90;;;;;;5022816;28;20683;-75
2021/05/12 02:03:15;;;;;;;59.97;28.30;;;11.50;99.90;;;;;;5023959;28;20236;-74
2021/05/12 02:05:43;;;;;;;53.77;27.40;;;11.60;99.90;;;;;;5023303;28;20216;-75
2021/05/12 02:08:11;;;;;;;51.77;27.67;;;11.50;99.90;;;;;;5024235;28;20243;-74
2021/05/12 02:10:39;;;;;;;50.30;27.33;;;11.60;99.90;;;;;;5025082;28;20291;-74
2021/05/12 02:13:06;;;;;;;55.73;29.50;;;11.60;99.90;;;;;;5019558;28;20290;-74
2021/05/12 02:15:33;;;;;;;52.07;27.17;;;11.60;99.90;;;;;;5019761;28;20331;-74
2021/05/12 02:17:59;;;;;;;56.07;28.40;;;11.70;99.90;;;;;;5020077;28;20258;-74
2021/05/12 02:20:29;;;;;;;52.57;28.10;;;11.70;99.90;;;;;;5018783;28;20995;-75
2021/05/12 02:22:55;;;;;;;57.03;28.63;;;11.70;99.90;;;;;;5022185;28;20250;-74
2021/05/12 02:25:21;;;;;;;54.10;28.60;;;11.70;99.90;;;;;;5024279;28;20254;-74
2021/05/12 02:27:48;;;;;;;62.97;29.27;;;11.70;99.90;;;;;;5020420;28;20672;-74
2021/05/12 02:30:16;;;;;;;56.10;27.83;;;11.70;99.90;;;;;;5019278;28;20311;-74
2021/05/12 02:32:42;;;;;;;51.63;27.67;;;11.70;99.90;;;;;;5018922;28;20208;-74
2021/05/12 02:35:10;;;;;;;56.17;28.73;;;11.70;99.90;;;;;;5020850;28;20247;-76
2021/05/12 02:37:37;;;;;;;55.87;28.57;;;11.70;99.90;;;;;;5016461;28;20195;-74
2021/05/12 02:40:07;;;;;;;55.67;28.60;;;11.70;99.90;;;;;;5023953;28;20354;-73
2021/05/12 02:42:34;;;;;;;52.93;28.00;;;11.70;99.90;;;;;;5021872;28;20298;-73
2021/05/12 02:45:00;;;;;;;51.10;28.20;;;11.80;99.90;;;;;;5018094;28;20291;-74
2021/05/12 02:47:27;;;;;;;55.40;28.20;;;11.80;99.90;;;;;;5015786;28;20303;-74
2021/05/12 02:49:54;;;;;;;54.60;28.23;;;11.70;99.90;;;;;;5019424;28;20287;-74
2021/05/12 02:52:20;;;;;;;54.57;28.50;;;11.70;99.90;;;;;;5019875;28;20200;-74
2021/05/12 02:54:47;;;;;;;52.47;29.00;;;11.80;99.90;;;;;;5020606;28;20312;-73
2021/05/12 02:57:13;;;;;;;52.10;27.70;;;11.80;99.90;;;;;;5022351;28;20714;-74
2021/05/12 02:59:40;;;;;;;50.07;27.97;;;11.70;99.90;;;;;;5020650;28;20200;-76
2021/05/12 03:02:06;;;;;;;55.03;29.07;;;11.80;99.90;;;;;;5025193;28;20267;-76
2021/05/12 03:04:34;;;;;;;52.33;28.57;;;11.70;99.90;;;;;;5057669;22;20239;-74
2021/05/12 03:07:01;;;;;;;56.63;30.23;;;11.70;99.90;;;;;;5017292;28;20227;-72
2021/05/12 03:09:28;;;;;;;58.43;31.27;;;11.70;99.90;;;;;;5023320;28;20235;-74
2021/05/12 03:11:55;;;;;;;59.70;31.53;;;11.70;99.90;;;;;;5020583;28;20646;-74
2021/05/12 03:14:22;;;;;;;60.13;30.93;;;11.60;99.90;;;;;;5012806;28;20314;-74
2021/05/12 03:16:48;;;;;;;61.43;31.53;;;11.60;99.90;;;;;;4997961;28;20216;-74
2021/05/12 03:19:16;;;;;;;66.90;34.07;;;11.60;99.90;;;;;;5001631;28;20207;-73
2021/05/12 03:21:43;;;;;;;68.53;32.43;;;11.60;99.90;;;;;;5003366;28;20793;-73
2021/05/12 03:24:10;;;;;;;63.33;33.50;;;11.60;99.90;;;;;;5003361;28;20223;-71
2021/05/12 03:26:37;;;;;;;65.53;33.60;;;11.60;99.90;;;;;;5001680;28;20699;-73
2021/05/12 03:29:05;;;;;;;63.70;33.67;;;11.60;99.90;;;;;;5001207;28;20215;-73
2021/05/12 03:31:32;;;;;;;66.40;35.03;;;11.60;99.90;;;;;;4999108;28;20328;-73
2021/05/12 03:33:58;;;;;;;70.40;35.27;;;11.60;99.90;;;;;;5000403;28;20302;-73
2021/05/12 03:36:25;;;;;;;68.67;35.20;;;11.60;99.90;;;;;;4993493;28;20233;-72
2021/05/12 03:38:53;;;;;;;61.73;34.33;;;11.60;99.90;;;;;;4995040;28;21303;-73
2021/05/12 03:41:20;;;;;;;73.10;34.67;;;11.60;99.90;;;;;;4993082;28;20200;-72
2021/05/12 03:43:46;;;;;;;68.57;35.77;;;11.60;99.90;;;;;;4992750;28;20318;-73
2021/05/12 03:46:13;;;;;;;70.73;37.23;;;11.60;99.90;;;;;;4998841;28;20206;-73
2021/05/12 03:48:39;;;;;;;73.83;38.40;;;11.60;99.90;;;;;;5009205;28;20211;-73
2021/05/12 03:51:06;;;;;;;77.17;36.93;;;11.50;99.90;;;;;;5007783;28;20825;-73
2021/05/12 03:53:32;;;;;;;76.40;39.13;;;11.60;99.90;;;;;;5011783;28;20256;-73
2021/05/12 03:55:59;;;;;;;72.10;37.33;;;11.60;99.90;;;;;;5012971;28;20673;-73
2021/05/12 03:58:25;;;;;;;78.00;36.77;;;11.60;99.90;;;;;;5002154;28;20231;-73
2021/05/12 04:00:52;;;;;;;69.30;35.83;;;11.60;99.90;;;;;;5006079;28;20637;-73
2021/05/12 04:03:18;;;;;;;72.73;37.33;;;11.50;99.90;;;;;;5001568;28;20663;-73
2021/05/12 04:05:45;;;;;;;80.67;36.33;;;11.50;99.90;;;;;;5003124;28;20209;-73
2021/05/12 04:08:11;;;;;;;76.90;37.00;;;11.40;99.90;;;;;;5004399;28;20220;-73
2021/05/12 04:10:38;;;;;;;77.43;37.73;;;11.40;99.90;;;;;;5001161;28;20746;-73
2021/05/12 04:13:05;;;;;;;75.20;37.93;;;11.50;99.90;;;;;;4998842;28;20205;-73
2021/05/12 04:15:32;;;;;;;84.60;40.00;;;11.40;99.90;;;;;;5006186;28;20201;-73
2021/05/12 04:17:58;;;;;;;82.83;38.60;;;11.40;99.90;;;;;;4997834;28;20592;-73
2021/05/12 04:20:24;;;;;;;89.50;39.43;;;11.40;99.90;;;;;;4999902;28;20272;-73
2021/05/12 04:22:51;;;;;;;89.13;40.40;;;11.40;99.90;;;;;;4997036;28;20208;-73
2021/05/12 04:25:19;;;;;;;83.97;39.87;;;11.40;99.90;;;;;;4995140;28;20231;-73
2021/05/12 04:27:47;;;;;;;91.20;39.03;;;11.40;99.90;;;;;;5000372;28;20220;-73
2021/05/12 04:30:17;;;;;;;78.93;39.87;;;11.40;99.90;;;;;;5003829;28;20295;-73
2021/05/12 04:32:44;;;;;;;83.57;39.17;;;11.40;99.90;;;;;;5000310;28;20287;-72
2021/05/12 04:35:12;;;;;;;82.67;39.93;;;11.50;99.90;;;;;;5001302;28;20246;-73
2021/05/12 04:37:38;;;;;;;84.30;39.57;;;11.50;99.90;;;;;;4988706;28;20201;-74
2021/05/12 04:40:07;;;;;;;85.50;38.67;;;11.50;99.90;;;;;;4993496;28;20204;-72
2021/05/12 04:42:33;;;;;;;80.83;38.83;;;11.60;99.90;;;;;;4994967;28;20871;-71
2021/05/12 04:45:00;;;;;;;77.27;37.80;;;11.60;99.90;;;;;;4996271;28;20254;-71
2021/05/12 04:47:27;;;;;;;80.53;38.67;;;11.60;99.90;;;;;;4993333;28;20252;-73
2021/05/12 04:49:54;;;;;;;82.40;37.67;;;11.60;99.90;;;;;;4986310;28;20212;-71
2021/05/12 04:52:20;;;;;;;75.30;36.60;;;11.70;99.90;;;;;;4987455;28;20219;-71
2021/05/12 04:54:46;;;;;;;76.10;35.30;;;11.70;99.90;;;;;;4998982;28;20216;-73
2021/05/12 04:57:13;;;;;;;79.73;35.47;;;11.70;99.90;;;;;;5000029;28;20208;-72
2021/05/12 04:59:39;;;;;;;72.27;34.70;;;11.80;99.90;;;;;;4997198;28;20204;-72
2021/05/12 05:02:09;;;;;;;76.43;34.93;;;11.80;99.90;;;;;;4998263;28;20211;-75
2021/05/12 05:04:38;;;;;;;75.90;33.97;;;11.80;99.90;;;;;;5001441;28;20221;-73
2021/05/12 05:07:05;;;;;;;72.13;34.97;;;11.90;99.90;;;;;;4995128;28;21782;-75
2021/05/12 05:09:31;;;;;;;71.37;33.73;;;11.90;99.90;;;;;;4988849;28;20295;-74
2021/05/12 05:11:58;;;;;;;66.30;33.20;;;11.90;99.90;;;;;;4989081;28;20204;-75
2021/05/12 05:14:24;;;;;;;64.10;31.40;;;11.90;99.90;;;;;;4997061;28;20773;-74
2021/05/12 05:16:51;;;;;;;59.93;31.23;;;12.00;99.90;;;;;;4993786;28;20984;-74
2021/05/12 05:19:17;;;;;;;64.07;31.30;;;12.00;99.90;;;;;;4987879;28;20208;-71
2021/05/12 05:21:45;;;;;;;57.77;29.73;;;12.10;99.90;;;;;;4989657;28;20295;-74
2021/05/12 05:24:11;;;;;;;62.33;29.70;;;12.10;99.90;;;;;;4988030;28;21063;-74
2021/05/12 05:26:37;;;;;;;62.77;28.30;;;12.20;99.90;;;;;;4997096;28;20211;-74
2021/05/12 05:29:04;;;;;;;53.70;27.20;;;12.30;99.90;;;;;;4998097;28;20204;-73
2021/05/12 05:31:30;;;;;;;52.47;28.07;;;12.30;99.90;;;;;;4995435;28;20254;-74
2021/05/12 05:33:57;;;;;;;53.43;28.40;;;12.30;99.90;;;;;;4999059;28;20220;-74
2021/05/12 05:36:23;;;;;;;53.40;27.43;;;12.30;99.90;;;;;;5004314;28;20662;-74
2021/05/12 05:38:50;;;;;;;52.37;27.87;;;12.30;99.90;;;;;;4999673;28;20634;-74
2021/05/12 05:41:18;;;;;;;52.43;27.17;;;12.30;99.90;;;;;;4994651;28;20291;-71
2021/05/12 05:43:44;;;;;;;51.27;25.87;;;12.40;99.90;;;;;;4998119;28;20647;-74
2021/05/12 05:46:10;;;;;;;51.40;26.73;;;12.50;99.90;;;;;;4995493;28;20754;-72
2021/05/12 05:48:37;;;;;;;48.73;25.50;;;12.60;99.90;;;;;;4999800;28;20295;-73
2021/05/12 05:51:03;;;;;;;53.77;27.20;;;12.50;99.90;;;;;;5010461;28;20228;-72
2021/05/12 05:53:30;;;;;;;49.93;26.37;;;12.50;99.90;;;;;;5003496;28;20391;-72
2021/05/12 05:55:57;;;;;;;48.50;25.87;;;12.50;99.90;;;;;;5012980;28;20669;-72
2021/05/12 05:58:23;;;;;;;50.33;24.70;;;12.60;99.90;;;;;;5002179;28;20292;-72
2021/05/12 06:00:50;;;;;;;42.90;24.73;;;12.70;99.90;;;;;;5005879;28;20218;-75
2021/05/12 06:03:16;;;;;;;41.63;23.57;;;12.70;99.90;;;;;;5009562;28;20684;-72
2021/05/12 06:05:46;;;;;;;47.90;24.20;;;12.80;99.90;;;;;;5004272;28;20216;-72
2021/05/12 06:08:13;;;;;;;46.57;22.93;;;13.00;99.90;;;;;;5007737;28;20239;-72
2021/05/12 06:10:39;;;;;;;44.73;22.87;;;13.20;99.90;;;;;;5008251;28;20227;-72
2021/05/12 06:13:06;;;;;;;41.60;22.70;;;13.50;99.90;;;;;;5008726;28;20211;-72
2021/05/12 06:15:33;;;;;;;40.07;22.00;;;13.60;99.90;;;;;;5012233;28;20617;-73
2021/05/12 06:17:59;;;;;;;40.77;21.20;;;13.80;99.90;;;;;;5003888;28;20581;-72
2021/05/12 06:20:26;;;;;;;36.33;20.67;;;13.90;99.90;;;;;;5008314;28;20247;-73
2021/05/12 06:23:00;;;;;;;35.20;18.73;;;14.50;99.90;;;;;;5010482;28;20203;-73
2021/05/12 06:25:27;;;;;;;31.73;18.13;;;15.50;99.90;;;;;;5006028;28;20266;-73
2021/05/12 06:27:53;;;;;;;31.63;18.57;;;16.20;99.90;;;;;;4999502;28;20279;-75
2021/05/12 06:30:21;;;;;;;37.87;19.13;;;16.70;99.90;;;;;;5001562;28;20638;-73
2021/05/12 06:32:50;;;;;;;32.70;18.07;;;16.80;99.90;;;;;;5005182;28;20226;-73
2021/05/12 06:35:17;;;;;;;32.13;16.90;;;16.30;99.90;;;;;;5012639;28;20232;-73
2021/05/12 06:37:43;;;;;;;32.00;17.17;;;16.20;99.90;;;;;;5011682;28;20303;-73
2021/05/12 06:40:10;;;;;;;28.10;16.03;;;16.20;99.90;;;;;;5010118;28;20275;-73
2021/05/12 06:42:37;;;;;;;27.20;16.07;;;15.90;99.90;;;;;;5017710;28;20227;-73
2021/05/12 06:45:04;;;;;;;31.47;16.00;;;15.90;99.90;;;;;;5006992;28;20333;-73
2021/05/12 06:47:31;;;;;;;27.07;14.53;;;15.60;99.90;;;;;;5004419;28;20234;-73
2021/05/12 06:49:58;;;;;;;29.93;14.30;;;15.70;99.90;;;;;;5005585;28;20207;-73
2021/05/12 06:52:24;;;;;;;27.50;13.97;;;15.70;99.90;;;;;;5005447;28;20749;-73
2021/05/12 06:54:50;;;;;;;25.40;13.67;;;15.20;99.90;;;;;;5005425;28;20359;-73
2021/05/12 06:57:17;;;;;;;26.77;13.53;;;15.00;99.90;;;;;;5013228;28;20212;-73
2021/05/12 06:59:43;;;;;;;27.03;14.00;;;15.10;99.90;;;;;;5007524;28;20213;-72
2021/05/12 07:02:09;;;;;;;23.63;12.50;;;15.10;99.90;;;;;;4996589;28;21001;-73
2021/05/12 07:04:37;;;;;;;29.57;13.43;;;15.40;99.90;;;;;;5002986;28;20457;-73
2021/05/12 07:07:03;;;;;;;22.90;11.17;;;15.40;99.90;;;;;;5007666;28;20706;-73
2021/05/12 07:09:29;;;;;;;25.77;12.60;;;15.40;99.90;;;;;;5002852;28;20355;-72
2021/05/12 07:11:56;;;;;;;20.83;10.80;;;15.50;99.90;;;;;;5008534;28;20215;-73
2021/05/12 07:14:23;;;;;;;23.83;10.77;;;15.70;99.90;;;;;;5003628;28;20300;-73
2021/05/12 07:16:52;;;;;;;18.70;10.27;;;15.40;99.90;;;;;;5006426;28;20196;-73
2021/05/12 07:19:18;;;;;;;20.13;9.87;;;15.40;99.90;;;;;;5001932;28;20239;-73
2021/05/12 07:21:46;;;;;;;18.27;9.90;;;15.50;99.90;;;;;;5005182;28;20205;-73
2021/05/12 07:24:12;;;;;;;17.07;9.03;;;15.60;99.90;;;;;;5009489;28;20243;-73
2021/05/12 07:26:39;;;;;;;18.20;8.83;;;15.70;99.90;;;;;;5003395;28;20343;-73
2021/05/12 07:29:05;;;;;;;19.30;9.30;;;15.80;99.90;;;;;;5006187;28;20296;-73
2021/05/12 07:31:32;;;;;;;17.77;9.77;;;15.90;99.90;;;;;;5003947;28;20209;-73
2021/05/12 07:33:58;;;;;;;16.90;8.90;;;16.00;99.90;;;;;;5006045;28;20714;-73
2021/05/12 07:36:25;;;;;;;23.27;10.03;;;16.10;99.90;;;;;;5008198;28;20265;-73
2021/05/12 07:38:52;;;;;;;22.40;9.63;;;16.40;99.90;;;;;;5001745;28;20298;-74
2021/05/12 07:41:18;;;;;;;24.33;9.30;;;16.60;99.90;;;;;;5003649;28;20227;-74
2021/05/12 07:43:45;;;;;;;25.60;9.80;;;16.70;99.90;;;;;;5004878;28;20228;-72
2021/05/12 07:46:11;;;;;;;21.20;9.30;;;16.90;99.90;;;;;;4999822;28;20209;-72
2021/05/12 07:48:38;;;;;;;20.30;9.73;;;17.50;99.90;;;;;;5007438;28;20337;-72
2021/05/12 07:51:04;;;;;;;21.53;10.40;;;17.70;99.90;;;;;;5005812;28;20628;-72
2021/05/12 07:53:32;;;;;;;18.67;10.17;;;18.00;99.90;;;;;;5000266;28;20230;-72
2021/05/12 07:55:59;;;;;;;20.73;10.27;;;18.20;99.90;;;;;;5006205;28;20235;-72
2021/05/12 07:58:25;;;;;;;17.30;9.57;;;19.00;99.90;;;;;;4999860;28;20243;-72
2021/05/12 08:00:52;;;;;;;16.07;9.10;;;19.40;99.90;;;;;;5004103;28;20292;-72
2021/05/12 08:03:19;;;;;;;17.60;9.03;;;19.60;99.90;;;;;;5003307;28;20236;-72
2021/05/12 08:05:47;;;;;;;17.67;9.83;;;19.40;99.90;;;;;;5003793;28;20296;-73
2021/05/12 08:08:16;;;;;;;18.13;8.90;;;19.40;99.90;;;;;;5002387;28;20260;-73
2021/05/12 08:10:43;;;;;;;19.17;9.77;;;19.60;99.90;;;;;;5006241;28;20204;-73
2021/05/12 08:13:10;;;;;;;18.23;9.50;;;19.90;99.90;;;;;;5000890;28;20227;-73
2021/05/12 08:15:36;;;;;;;17.90;8.87;;;20.30;99.90;;;;;;5006794;28;20201;-73
2021/05/12 08:18:03;;;;;;;19.03;8.83;;;21.40;99.90;;;;;;4997966;28;20205;-73
2021/05/12 08:20:31;;;;;;;18.10;8.57;;;22.40;99.90;;;;;;5007693;28;20204;-73
2021/05/12 08:22:57;;;;;;;18.60;8.43;;;22.30;99.90;;;;;;5000923;28;20224;-73
2021/05/12 08:25:24;;;;;;;14.93;8.90;;;22.40;99.90;;;;;;5002937;28;20211;-74
2021/05/12 08:27:53;;;;;;;15.07;8.40;;;22.20;99.90;;;;;;5004393;28;20281;-73
2021/05/12 08:30:22;;;;;;;16.47;8.53;;;22.10;99.90;;;;;;5008705;28;20309;-75
2021/05/12 08:32:50;;;;;;;18.30;7.93;;;22.70;99.90;;;;;;5001239;28;20232;-74
2021/05/12 08:35:16;;;;;;;13.60;7.10;;;22.80;99.90;;;;;;5005643;28;20700;-74
2021/05/12 08:37:43;;;;;;;13.97;6.87;;;23.70;99.90;;;;;;5005648;28;20205;-73
2021/05/12 08:40:11;;;;;;;12.93;6.60;;;24.00;99.90;;;;;;4999876;28;20259;-73
2021/05/12 08:42:39;;;;;;;15.50;6.83;;;22.60;99.90;;;;;;5007176;28;20271;-74
2021/05/12 08:45:08;;;;;;;17.20;6.17;;;23.00;99.90;;;;;;5005185;28;20260;-74
2021/05/12 08:47:35;;;;;;;12.33;5.73;;;22.80;99.90;;;;;;5004733;28;20685;-74
2021/05/12 08:50:02;;;;;;;13.90;6.47;;;23.10;99.90;;;;;;5004619;28;20473;-74
2021/05/12 08:52:29;;;;;;;12.73;6.17;;;22.40;99.90;;;;;;5007845;28;20601;-73
2021/05/12 08:54:57;;;;;;;13.03;6.10;;;21.90;99.90;;;;;;4999785;28;20314;-73
2021/05/12 08:57:23;;;;;;;14.40;6.03;;;22.30;99.90;;;;;;5006557;28;20292;-73
2021/05/12 08:59:52;;;;;;;15.57;5.27;;;21.90;99.90;;;;;;5003526;28;20298;-73
2021/05/12 09:02:19;;;;;;;16.67;5.00;;;21.40;99.90;;;;;;5009711;28;20298;-73
2021/05/12 09:04:46;;;;;;;12.70;5.20;;;20.90;99.90;;;;;;5019267;22;20230;-75
2021/05/12 09:07:12;;;;;;;11.90;5.10;;;20.40;99.90;;;;;;5058540;28;20254;-75
2021/05/12 09:09:39;;;;;;;12.90;5.60;;;19.80;99.90;;;;;;5059135;28;20234;-75
2021/05/12 09:12:05;;;;;;;13.33;5.13;;;19.40;99.90;;;;;;5057655;28;20632;-75
2021/05/12 09:14:35;;;;;;;13.13;5.00;;;19.40;99.90;;;;;;5072741;28;20252;-75
2021/05/12 09:17:02;;;;;;;11.40;4.60;;;19.50;99.90;;;;;;5076021;28;20733;-75
2021/05/12 09:19:29;;;;;;;12.13;4.73;;;19.40;99.90;;;;;;5076408;28;20297;-75
2021/05/12 09:21:58;;;;;;;9.63;4.60;;;19.40;99.90;;;;;;5086385;28;20292;-75
2021/05/12 09:24:28;;;;;;;11.50;4.30;;;19.00;99.90;;;;;;5080673;28;20369;-75
2021/05/12 09:26:55;;;;;;;9.50;3.90;;;18.70;99.90;;;;;;5082869;28;20225;-74
2021/05/12 09:29:27;;;;;;;9.83;4.23;;;18.60;99.90;;;;;;5084897;28;20748;-75
2021/05/12 09:32:02;;;;;;;7.50;3.97;;;18.40;99.90;;;;;;5079829;28;20356;-75
2021/05/12 09:34:28;;;;;;;11.03;3.70;;;18.00;99.90;;;;;;5081181;28;20320;-74
2021/05/12 09:36:56;;;;;;;8.80;3.33;;;18.20;99.90;;;;;;5080797;28;20286;-74
2021/05/12 09:39:22;;;;;;;5.60;2.40;;;18.30;99.90;;;;;;5078868;28;20233;-75
2021/05/12 09:41:48;;;;;;;7.17;2.13;;;18.30;99.90;;;;;;5083177;28;20197;-75
2021/05/12 09:44:28;;;;;;;8.83;2.93;;;18.50;99.90;;;;;;5079014;28;20840;-74
2021/05/12 09:47:01;;;;;;;7.47;2.80;;;18.60;99.90;;;;;;5077129;28;20236;-74
2021/05/12 09:49:29;;;;;;;7.13;2.53;;;18.60;99.90;;;;;;5083970;28;20210;-74
2021/05/12 09:51:58;;;;;;;8.73;2.47;;;18.00;99.90;;;;;;5077224;28;20213;-74
2021/05/12 09:54:28;;;;;;;5.73;2.77;;;18.00;99.90;;;;;;5081081;28;20233;-77
2021/05/12 09:56:57;;;;;;;8.10;2.53;;;18.10;99.90;;;;;;5084114;28;20202;-75
2021/05/12 09:59:25;;;;;;;4.70;2.30;;;18.10;99.90;;;;;;5080291;28;20216;-75
2021/05/12 10:01:54;;;;;;;7.60;2.37;;;18.50;99.90;;;;;;5077550;28;20289;-75
2021/05/12 10:04:31;;;;;;;9.37;2.70;;;18.40;99.90;;;;;;5085555;28;20221;-75
2021/05/12 10:07:00;;;;;;;6.90;2.50;;;18.60;99.90;;;;;;5078292;28;20547;-75
2021/05/12 10:09:28;;;;;;;8.10;2.13;;;18.40;99.90;;;;;;5080299;28;20204;-75
2021/05/12 10:12:17;;;;;;;7.73;2.47;;;18.50;99.90;;;;;;5081406;28;20226;-75
2021/05/12 10:14:47;;;;;;;9.10;2.30;;;18.60;99.90;;;;;;5073896;28;20224;-74
2021/05/12 10:17:15;;;;;;;6.03;2.23;;;18.70;99.90;;;;;;5080018;28;20267;-74
2021/05/12 10:19:44;;;;;;;5.97;2.30;;;18.90;99.90;;;;;;5094745;28;20209;-75
2021/05/12 10:22:12;;;;;;;9.17;2.90;;;19.00;99.90;;;;;;5086002;28;20236;-75
2021/05/12 10:24:41;;;;;;;6.83;2.37;;;18.80;99.90;;;;;;5084841;28;20320;-75
2021/05/12 10:27:11;;;;;;;8.17;2.47;;;18.80;99.90;;;;;;5078449;28;20222;-75
2021/05/12 10:29:40;;;;;;;10.50;2.40;;;18.60;99.90;;;;;;5080932;28;20288;-75
2021/05/12 10:32:22;;;;;;;6.67;2.30;;;18.60;99.90;;;;;;5077883;28;20281;-75
2021/05/12 10:34:59;;;;;;;7.73;2.67;;;18.60;99.90;;;;;;5081529;28;20229;-75
2021/05/12 10:37:28;;;;;;;6.20;2.40;;;18.40;99.90;;;;;;5080014;28;20194;-74
2021/05/12 10:40:00;;;;;;;10.00;2.30;;;18.40;99.90;;;;;;5080950;28;20206;-75
2021/05/12 10:42:56;;;;;;;7.90;2.67;;;18.40;99.90;;;;;;5076801;28;20669;-74
2021/05/12 10:45:54;;;;;;;6.17;2.47;;;18.40;99.90;;;;;;5081329;28;20545;-74
2021/05/12 10:48:32;;;;;;;6.70;2.47;;;18.40;99.90;;;;;;5076199;28;20309;-74
2021/05/12 10:51:00;;;;;;;6.90;2.37;;;18.60;99.90;;;;;;5083192;28;20212;-74
2021/05/12 10:53:29;;;;;;;11.33;2.77;;;18.70;99.90;;;;;;5077949;28;20274;-75
2021/05/12 10:56:04;;;;;;;12.40;3.73;;;18.80;99.90;;;;;;5081598;28;20233;-75
2021/05/12 10:58:32;;;;;;;5.17;2.47;;;18.90;99.90;;;;;;5079100;28;20681;-74
2021/05/12 11:01:00;;;;;;;7.67;2.80;;;19.00;99.90;;;;;;5080435;28;20236;-75
2021/05/12 11:04:14;;;;;;;5.40;2.90;;;19.00;99.90;;;;;;5077102;28;20319;-75
2021/05/12 11:07:02;;;;;;;10.37;2.80;;;19.00;99.90;;;;;;5079473;28;20209;-75
2021/05/12 11:09:45;;;;;;;4.63;2.77;;;18.80;99.90;;;;;;5078658;28;20237;-75
2021/05/12 11:12:15;;;;;;;13.80;2.80;;;18.70;99.90;;;;;;5081904;28;20198;-75
2021/05/12 11:14:55;;;;;;;9.30;2.57;;;18.80;99.90;;;;;;5080665;28;20262;-75
2021/05/12 11:17:23;;;;;;;5.40;2.47;;;18.90;99.90;;;;;;5079477;28;20218;-75
2021/05/12 11:19:51;;;;;;;5.33;2.80;;;19.10;99.90;;;;;;5077472;28;20206;-76
2021/05/12 11:22:33;;;;;;;6.60;2.50;;;19.30;99.90;;;;;;5080446;28;20202;-75
2021/05/12 11:25:05;;;;;;;4.73;2.37;;;19.40;99.90;;;;;;5082850;28;20226;-75
2021/05/12 11:27:51;;;;;;;7.90;2.90;;;19.40;99.90;;;;;;5077431;28;20222;-74
2021/05/12 11:33:03;;;;;;;6.70;3.17;;;19.20;99.90;;;;;;5081598;28;20318;-75
2021/05/12 11:35:31;;;;;;;7.73;3.10;;;18.80;99.90;;;;;;5077125;28;20210;-75
2021/05/12 11:37:58;;;;;;;7.33;3.10;;;19.00;99.90;;;;;;5082844;28;20237;-75
2021/05/12 11:40:30;;;;;;;7.47;3.03;;;19.10;99.90;;;;;;5078153;28;20205;-74
2021/05/12 11:49:40;;;;;;;10.93;3.70;;;19.00;99.90;;;;;;5080481;28;20197;-75
2021/05/12 11:52:07;;;;;;;8.47;3.83;;;18.60;99.90;;;;;;5078050;28;20742;-74
2021/05/12 11:54:33;;;;;;;8.03;3.40;;;18.10;99.90;;;;;;5081348;28;20721;-74
2021/05/12 11:57:01;;;;;;;7.47;3.57;;;17.80;99.90;;;;;;5080418;28;20715;-75
2021/05/12 11:59:30;;;;;;;9.17;4.00;;;17.80;99.90;;;;;;5075191;28;20240;-75
2021/05/12 12:02:04;;;;;;;7.80;3.43;;;17.90;99.90;;;;;;5079830;28;20243;-75
2021/05/12 12:04:35;;;;;;;7.23;3.33;;;17.80;99.90;;;;;;5078576;28;20226;-75
2021/05/12 12:07:01;;;;;;;8.00;4.20;;;17.70;99.90;;;;;;5079658;28;20205;-75
2021/05/12 12:09:28;;;;;;;6.30;3.73;;;17.50;99.90;;;;;;5078427;28;20292;-75
2021/05/12 12:11:56;;;;;;;12.40;3.80;;;17.40;99.90;;;;;;5074460;28;20202;-75
2021/05/12 12:14:29;;;;;;;9.93;4.03;;;17.30;99.90;;;;;;5084046;28;20299;-75
2021/05/12 12:16:55;;;;;;;9.27;4.10;;;17.30;99.90;;;;;;5077747;28;20210;-75
2021/05/12 12:19:24;;;;;;;7.63;4.30;;;17.30;99.90;;;;;;5075535;28;20301;-75
2021/05/12 12:21:54;;;;;;;11.00;3.70;;;17.30;99.90;;;;;;5080925;28;20257;-75
2021/05/12 12:24:23;;;;;;;7.93;3.60;;;17.30;99.90;;;;;;5078799;28;20233;-75
2021/05/12 12:26:52;;;;;;;6.93;3.60;;;17.30;99.90;;;;;;5080123;28;20214;-75
2021/05/12 12:29:20;;;;;;;12.83;3.60;;;17.50;99.90;;;;;;5074967;28;20670;-75
2021/05/12 12:31:49;;;;;;;7.37;3.60;;;17.60;99.90;;;;;;5077532;28;20354;-75
2021/05/12 12:34:19;;;;;;;7.40;3.50;;;17.70;99.90;;;;;;5076083;28;20230;-75
2021/05/12 12:37:01;;;;;;;7.43;3.50;;;17.90;99.90;;;;;;5078255;28;20232;-74
2021/05/12 12:39:50;;;;;;;9.10;3.40;;;18.10;99.90;;;;;;5085235;28;20296;-75
2021/05/12 12:42:22;;;;;;;9.40;3.40;;;18.10;99.90;;;;;;5081540;28;20202;-75
2021/05/12 12:44:49;;;;;;;11.93;3.63;;;18.30;99.90;;;;;;5075531;28;20225;-75
2021/05/12 12:47:19;;;;;;;7.83;3.50;;;18.00;99.90;;;;;;5080074;28;20716;-75